Acequia, ID

9:17 AM MDT on June 30, 2015 (GMT -0600)
Heyburn | | Change Station
CLOSE
Current Station
Personal Weather Station
Location: Heyburn, ID
Elevation: 4157 ft
Nearby Weather Stations

Elev 4157 ft 42.56 °N, 113.78 °W | Updated 11 seconds ago

Partly Cloudy
Partly Cloudy
81.5 °F
Feels Like 82 °F
N
2.3
Wind Variable Wind from NE
Gusts 3.5 mph

Today
High -- | Low -- °F
--% Chance of Precip.
Yesterday
High -- | Low -- °F
Precip. -- in
6:00 AM 9:16 PM
Waxing Gibbous, 97% visible
Pressure 29.95 in
Visibility 10.0 miles
Clouds Clear
Heat Index 82 °F
Dew Point 60 °F
Humidity 49%
Rainfall 0.00 in
Snow Depth Not available.
UV 3 out of 12
Pollen 6.90 out of 12
Air Quality Not available.
Flu Activity No Activity
METAR KBYI 301453Z AUTO 08006KT 10SM CLR 24/14 A3010 RMK AO2 SLP140 T02390144 50007

More Conditions Fewer Conditions

Pressure 29.95 in
Visibility 10.0 miles
Clouds Clear
Heat Index 82 °F
Dew Point 60 °F
Humidity 49%
Rainfall 0.00 in
Snow Depth Not available.
UV 3 out of 12
Pollen 6.90 out of 12
Air Quality Not available.
Flu Activity No Activity
METAR KBYI 301453Z AUTO 08006KT 10SM CLR 24/14 A3010 RMK AO2 SLP140 T02390144 50007

More Conditions Fewer Conditions

10-Day Weather Forecast

×

Almanac

Astronomy

Jun. 30, 2015 Rise Set
Actual Time
Civil Twilight
Nautical Twilight
Astronomical Twilight
Moon
Length of Visible Light
Length of Day
Tomorrow will be .
, % of the Moon is Illuminated

Today's Extremes

State Highs State Lows

Community

WunderPhotos

Upload Photos

1,834,017 photos uploaded!

WunderBlogs® & News

Nearby

Air Quality

  Air Quality AQ Index Pollutant
Not available.

Snow Depth

Station Depth Elevation

Earthquake Activity

City Distance Mag. Time & Date
Minimum magnitude displayed is 2.5.

Coastal Water Temperatures

Place Temperature

Stations

Nearby Weather Stations

Station Location Temp. Windchill Dew Point Humidity Wind Precip. Elev Updated Type